Time;durP1;ratioP1;P1;durP2;ratioP2;P2;SDS_P1;SDS_P2;PMS_P1;PMS_P2;Temp;Humidity;BMP_temperature;BMP_pressure;BME280_temperature;BME280_humidity;BME280_pressure;Samples;Min_cycle;Max_cycle;Signal;HPM_P1;HPM_P2
2022/12/04 00:01:39;;;;;;;19.23;12.40;;;;;;;5.85;65.50;102641.66;5001978;28;20386;-77
2022/12/04 00:04:05;;;;;;;18.90;12.57;;;;;;;5.75;65.71;102642.22;5007071;28;20382;-77
2022/12/04 00:06:32;;;;;;;20.25;12.45;;;;;;;5.83;65.70;102640.91;5004421;28;20845;-76
2022/12/04 00:08:58;;;;;;;18.73;12.18;;;;;;;5.74;65.72;102643.16;5008930;28;20393;-77
2022/12/04 00:11:27;;;;;;;17.73;11.57;;;;;;;5.69;66.34;102646.97;5003852;28;20712;-77
2022/12/04 00:13:53;;;;;;;17.60;11.83;;;;;;;5.50;66.89;102647.22;4996358;28;20576;-77
2022/12/04 00:16:22;;;;;;;21.48;12.50;;;;;;;5.73;66.14;102645.88;5002106;28;20392;-77
2022/12/04 00:18:48;;;;;;;20.10;12.13;;;;;;;5.78;65.63;102643.81;5011413;28;20380;-78
2022/12/04 00:21:15;;;;;;;17.85;11.27;;;;;;;5.77;65.78;102644.75;4999584;28;20492;-78
2022/12/04 00:23:41;;;;;;;16.48;10.80;;;;;;;5.58;66.41;102644.97;5011537;28;20388;-77
2022/12/04 00:26:09;;;;;;;15.53;10.33;;;;;;;5.51;66.72;102644.50;5012611;28;20395;-78
2022/12/04 00:28:35;;;;;;;17.40;10.50;;;;;;;5.63;66.51;102649.97;5012534;28;20832;-77
2022/12/04 00:31:05;;;;;;;13.80;10.20;;;;;;;5.51;66.72;102646.25;5012401;28;20391;-77
2022/12/04 00:33:30;;;;;;;16.42;10.55;;;;;;;5.70;66.45;102652.16;5011860;28;20407;-77
2022/12/04 00:36:01;;;;;;;15.20;9.73;;;;;;;5.46;66.76;102640.44;4998578;28;20402;-77
2022/12/04 00:38:26;;;;;;;14.35;9.70;;;;;;;5.57;66.76;102655.63;5003795;28;20472;-77
2022/12/04 00:40:52;;;;;;;13.10;9.23;;;;;;;5.44;67.12;102647.56;5007223;28;20606;-77
2022/12/04 00:43:18;;;;;;;13.43;9.63;;;;;;;5.30;67.59;102637.84;5005703;28;20373;-77
2022/12/04 00:45:44;;;;;;;16.20;10.32;;;;;;;5.27;67.21;102640.66;5005161;28;20752;-77
2022/12/04 00:48:09;;;;;;;15.03;10.27;;;;;;;5.36;67.02;102646.22;4997864;28;20860;-77
2022/12/04 00:50:35;;;;;;;16.60;9.60;;;;;;;5.39;66.97;102647.00;5012211;28;20860;-77
2022/12/04 00:53:01;;;;;;;16.37;9.50;;;;;;;5.25;67.74;102653.88;5010538;28;20853;-77
2022/12/04 00:55:27;;;;;;;16.37;9.77;;;;;;;5.12;68.07;102648.47;5011010;28;20416;-77
2022/12/04 00:57:52;;;;;;;16.03;10.20;;;;;;;5.35;67.29;102635.81;5010907;28;20383;-77
2022/12/04 01:00:18;;;;;;;13.20;9.63;;;;;;;5.43;66.65;102638.84;5001276;28;20438;-77
2022/12/04 01:02:44;;;;;;;14.80;10.15;;;;;;;5.54;66.65;102649.56;4996421;28;20820;-78
2022/12/04 01:05:10;;;;;;;15.93;10.07;;;;;;;5.55;66.42;102643.38;5011209;28;20387;-77
2022/12/04 01:07:36;;;;;;;15.75;10.30;;;;;;;5.65;66.14;102648.94;4999159;28;20463;-78
2022/12/04 01:10:04;;;;;;;16.58;10.30;;;;;;;5.58;66.94;102644.13;4998711;28;20941;-76
2022/12/04 01:12:29;;;;;;;14.52;9.88;;;;;;;5.55;66.95;102642.53;5010832;28;20380;-78
2022/12/04 01:14:55;;;;;;;12.23;8.88;;;;;;;5.26;67.69;102645.06;5010534;28;20771;-77
2022/12/04 01:17:20;;;;;;;12.37;8.33;;;;;;;5.33;67.55;102638.53;5009647;28;20393;-78
2022/12/04 01:19:46;;;;;;;13.03;7.90;;;;;;;5.20;67.37;102631.41;5001078;28;20413;-78
2022/12/04 01:22:11;;;;;;;11.38;6.90;;;;;;;5.22;67.60;102640.06;5009456;28;20853;-77
2022/12/04 01:24:37;;;;;;;12.20;6.83;;;;;;;5.36;67.25;102643.59;4998792;28;20373;-78
2022/12/04 01:27:02;;;;;;;13.57;6.93;;;;;;;5.38;67.05;102637.41;5011484;28;20394;-77
2022/12/04 01:29:28;;;;;;;10.03;6.07;;;;;;;5.12;67.18;102613.47;5011138;28;20391;-77
2022/12/04 01:31:53;;;;;;;7.18;5.07;;;;;;;4.93;67.83;102619.78;5016637;28;20844;-78
2022/12/04 01:34:18;;;;;;;7.63;5.10;;;;;;;4.58;68.75;102630.44;5009147;28;20405;-77
2022/12/04 01:36:44;;;;;;;9.37;5.97;;;;;;;4.82;68.07;102631.78;5000585;28;20876;-77
2022/12/04 01:39:09;;;;;;;10.25;5.82;;;;;;;4.90;68.32;102632.22;5010365;28;20376;-77
2022/12/04 01:41:35;;;;;;;8.07;5.60;;;;;;;5.01;68.05;102637.72;4998495;28;20462;-77
2022/12/04 01:44:19;;;;;;;10.20;6.30;;;;;;;4.94;68.08;102639.00;5011515;28;20376;-77
2022/12/04 01:46:49;;;;;;;8.93;5.95;;;;;;;4.68;68.51;102633.41;4979656;28;20409;-77
2022/12/04 01:49:22;;;;;;;9.15;6.07;;;;;;;4.89;68.10;102625.28;4996557;28;20401;-77
2022/12/04 01:51:51;;;;;;;10.73;6.53;;;;;;;4.91;67.87;102620.78;4978991;28;20386;-77
2022/12/04 01:54:27;;;;;;;8.77;6.15;;;;;;;4.77;68.36;102618.91;4991680;28;20405;-77
2022/12/04 01:57:05;;;;;;;9.20;5.95;;;;;;;4.84;67.97;102625.50;4991329;28;20839;-77
2022/12/04 01:59:34;;;;;;;9.60;6.40;;;;;;;4.77;68.44;102614.53;5004897;28;20380;-77
2022/12/04 02:02:08;;;;;;;9.82;6.38;;;;;;;4.70;68.50;102625.44;4997346;28;20848;-77
2022/12/04 02:04:35;;;;;;;11.77;6.53;;;;;;;4.69;68.28;102621.13;4997274;28;20387;-78
2022/12/04 02:07:01;;;;;;;11.63;6.28;;;;;;;4.59;68.88;102629.50;5003346;28;20407;-77
2022/12/04 02:09:30;;;;;;;11.05;7.38;;;;;;;4.87;67.70;102620.09;5003445;28;20397;-79
2022/12/04 02:12:01;;;;;;;10.73;7.05;;;;;;;5.00;67.37;102609.75;5007740;28;20387;-79
2022/12/04 02:14:51;;;;;;;10.80;7.50;;;;;;;5.05;67.34;102612.94;5005704;28;20401;-78
2022/12/04 02:17:34;;;;;;;11.85;7.57;;;;;;;4.94;67.84;102605.69;5008906;28;20387;-77
2022/12/04 02:20:08;;;;;;;12.95;7.75;;;;;;;4.95;67.99;102612.63;5000570;28;20392;-78
2022/12/04 02:22:58;;;;;;;11.65;7.65;;;;;;;4.83;68.29;102607.22;4997326;28;20376;-78
2022/12/04 02:25:29;;;;;;;13.68;8.73;;;;;;;4.91;67.53;102616.34;5010732;28;20372;-77
2022/12/04 02:28:21;;;;;;;12.95;8.65;;;;;;;4.89;67.74;102612.97;5004749;28;20479;-77
2022/12/04 02:30:50;;;;;;;14.00;9.50;;;;;;;4.74;68.48;102605.97;4991063;28;20762;-77
2022/12/04 02:33:30;;;;;;;14.38;9.50;;;;;;;4.90;68.34;102606.78;4999454;28;20416;-77
2022/12/04 02:36:12;;;;;;;16.30;9.25;;;;;;;4.99;67.44;102608.06;4996584;28;20470;-78
2022/12/04 02:38:56;;;;;;;15.20;10.00;;;;;;;4.94;68.27;102610.94;4994923;28;20397;-78
2022/12/04 02:41:29;;;;;;;16.48;9.88;;;;;;;4.79;67.98;102606.56;4991468;28;20385;-78
2022/12/04 02:44:01;;;;;;;18.58;9.95;;;;;;;4.84;68.21;102614.16;5005702;28;20382;-77
2022/12/04 02:46:36;;;;;;;18.48;11.18;;;;;;;4.97;67.64;102613.41;5000026;28;20882;-78
2022/12/04 02:49:11;;;;;;;18.05;10.25;;;;;;;4.59;68.45;102605.00;5014601;28;20388;-78
2022/12/04 02:51:39;;;;;;;19.92;11.25;;;;;;;4.74;68.23;102614.69;5014050;28;20446;-78
2022/12/04 02:54:13;;;;;;;18.05;11.07;;;;;;;4.69;68.36;102608.81;5007146;28;20401;-78
2022/12/04 02:56:44;;;;;;;18.53;11.03;;;;;;;4.78;68.03;102604.84;5009724;28;20936;-78
2022/12/04 02:59:16;;;;;;;18.60;11.30;;;;;;;4.59;69.08;102608.50;4995197;28;20377;-78
2022/12/04 03:01:48;;;;;;;18.92;10.73;;;;;;;4.67;68.42;102607.22;5008045;28;20423;-78
2022/12/04 03:04:17;;;;;;;19.35;10.73;;;;;;;4.83;68.40;102599.34;5014570;28;20860;-78
2022/12/04 03:06:48;;;;;;;18.48;10.93;;;;;;;4.79;67.78;102591.63;5014522;28;20376;-78
2022/12/04 03:09:21;;;;;;;18.77;11.07;;;;;;;4.70;68.36;102607.03;5013735;28;20389;-78
2022/12/04 03:11:52;;;;;;;19.17;11.25;;;;;;;4.55;68.63;102612.19;5002639;28;20374;-78
2022/12/04 03:14:29;;;;;;;17.77;11.50;;;;;;;4.79;67.96;102607.38;5011757;28;20395;-78
2022/12/04 03:17:03;;;;;;;19.70;11.90;;;;;;;4.87;68.05;102604.31;5013396;28;20388;-78
2022/12/04 03:19:47;;;;;;;19.70;11.98;;;;;;;4.77;68.33;102605.75;5012390;28;20484;-78
2022/12/04 03:22:17;;;;;;;21.30;12.75;;;;;;;4.78;68.39;102603.06;5009902;28;20407;-78
2022/12/04 03:24:49;;;;;;;19.30;11.65;;;;;;;4.65;68.28;102598.59;5000632;28;20481;-78
2022/12/04 03:27:48;;;;;;;22.50;11.60;;;;;;;4.71;68.36;102616.63;5000022;28;20739;-78
2022/12/04 03:30:18;;;;;;;21.58;12.18;;;;;;;4.60;68.73;102609.34;4993842;28;20851;-78
2022/12/04 03:33:06;;;;;;;20.15;12.35;;;;;;;4.81;68.20;102593.31;5011856;28;20384;-78
2022/12/04 03:35:40;;;;;;;20.40;12.90;;;;;;;4.95;67.60;102596.00;5007642;28;20392;-77
2022/12/04 03:38:15;;;;;;;20.92;11.93;;;;;;;4.96;67.49;102597.72;5007610;28;20560;-78
2022/12/04 03:40:53;;;;;;;22.30;16.50;;;;;;;4.90;67.31;102601.53;4994676;28;20398;-78
2022/12/04 03:43:28;;;;;;;19.60;11.63;;;;;;;4.88;67.84;102600.78;4998636;28;20414;-78
2022/12/04 03:46:23;;;;;;;19.98;11.85;;;;;;;4.73;68.46;102599.00;4993780;28;20414;-78
2022/12/04 03:48:51;;;;;;;18.20;11.68;;;;;;;4.70;68.38;102589.53;4989558;28;20427;-78
2022/12/04 03:51:22;;;;;;;19.48;11.05;;;;;;;4.75;67.69;102587.50;4996630;28;20397;-78
2022/12/04 03:53:51;;;;;;;16.65;10.23;;;;;;;4.84;68.01;102596.59;5001955;28;20409;-78
2022/12/04 03:56:21;;;;;;;16.67;10.43;;;;;;;4.86;67.19;102600.03;4980581;28;20453;-78
2022/12/04 03:58:54;;;;;;;19.33;10.57;;;;;;;4.84;67.17;102614.16;4987732;28;20463;-77
2022/12/04 04:01:29;;;;;;;15.32;9.80;;;;;;;4.69;68.16;102619.34;4984586;28;20763;-78
2022/12/04 04:03:58;;;;;;;15.75;9.45;;;;;;;4.45;68.55;102621.53;5002839;28;20420;-78
2022/12/04 04:06:32;;;;;;;14.30;9.45;;;;;;;4.47;68.65;102621.47;5004944;28;20391;-78
2022/12/04 04:09:04;;;;;;;14.10;8.43;;;;;;;4.75;68.17;102633.91;4980843;28;20888;-78
2022/12/04 04:11:42;;;;;;;13.73;8.90;;;;;;;4.53;68.24;102629.81;4993072;28;20398;-77
2022/12/04 04:25:33;;;;;;;11.82;7.25;;;;;;;4.65;67.94;102628.31;4993167;28;20401;-77
2022/12/04 04:27:58;;;;;;;9.77;6.25;;;;;;;4.63;67.51;102621.44;4992527;28;20393;-78
2022/12/04 04:30:26;;;;;;;9.60;6.90;;;;;;;4.48;68.44;102616.09;4991771;28;20401;-78
2022/12/04 04:33:00;;;;;;;10.67;7.67;;;;;;;4.55;67.80;102620.09;4995432;28;20475;-77
2022/12/04 04:35:56;;;;;;;11.57;6.20;;;;;;;4.77;67.39;102617.16;4993505;28;20435;-78
2022/12/04 04:38:47;;;;;;;12.07;6.95;;;;;;;4.72;67.71;102623.59;5010691;28;20433;-77
2022/12/04 04:41:26;;;;;;;11.98;7.45;;;;;;;4.79;67.29;102631.03;4995050;28;20407;-78
2022/12/04 04:44:10;;;;;;;10.20;6.72;;;;;;;4.73;67.02;102639.25;4985261;28;20399;-77
2022/12/04 04:46:40;;;;;;;10.97;6.30;;;;;;;4.79;67.30;102630.19;4982232;28;20622;-77
2022/12/04 04:49:09;;;;;;;12.43;8.90;;;;;;;4.75;66.67;102634.78;4979666;28;20403;-77
2022/12/04 04:51:36;;;;;;;9.90;6.32;;;;;;;4.70;67.46;102625.44;4993216;28;20406;-77
2022/12/04 04:54:06;;;;;;;12.77;9.32;;;;;;;4.88;66.75;102632.31;4994834;28;20414;-77
2022/12/04 04:56:39;;;;;;;9.95;6.72;;;;;;;4.93;66.77;102640.78;5003995;28;20434;-77
2022/12/04 04:59:05;;;;;;;11.65;6.32;;;;;;;4.67;67.32;102631.72;4993711;28;20442;-77
2022/12/04 05:01:30;;;;;;;9.93;6.60;;;;;;;4.53;67.49;102629.00;4994390;28;20394;-77
2022/12/04 05:03:56;;;;;;;10.82;6.97;;;;;;;4.38;68.00;102625.41;4992877;28;20404;-78
2022/12/04 05:06:21;;;;;;;12.07;6.60;;;;;;;4.61;67.47;102637.31;4991146;28;20408;-78
2022/12/04 05:08:48;;;;;;;12.87;8.00;;;;;;;4.71;66.94;102641.09;5001087;28;20419;-78
2022/12/04 05:11:15;;;;;;;11.32;6.65;;;;;;;4.67;66.58;102628.25;5003170;28;20401;-77
2022/12/04 05:13:41;;;;;;;11.07;6.90;;;;;;;4.57;67.43;102625.25;4983898;28;20469;-78
2022/12/04 05:16:11;;;;;;;10.40;6.50;;;;;;;4.67;67.45;102625.63;4989344;28;20463;-77
2022/12/04 05:18:37;;;;;;;10.65;6.72;;;;;;;4.54;67.60;102633.31;4991664;28;20521;-78
2022/12/04 05:21:15;;;;;;;10.27;6.10;;;;;;;4.52;67.82;102627.28;4993958;28;20742;-77
2022/12/04 05:23:41;;;;;;;8.65;5.78;;;;;;;4.63;67.22;102638.06;4987531;28;20442;-78
2022/12/04 05:26:06;;;;;;;10.48;6.38;;;;;;;4.48;67.68;102652.03;4982973;28;20431;-78
2022/12/04 05:28:32;;;;;;;11.18;6.03;;;;;;;4.49;67.36;102641.44;4994033;28;20841;-79
2022/12/04 05:31:00;;;;;;;10.47;6.20;;;;;;;4.54;67.50;102638.56;4990362;28;20409;-78
2022/12/04 05:33:26;;;;;;;9.63;6.07;;;;;;;4.33;68.05;102653.69;4993870;28;20417;-78
2022/12/04 05:36:06;;;;;;;9.95;6.18;;;;;;;4.04;68.69;102657.84;4985535;28;20430;-78
2022/12/04 05:38:32;;;;;;;10.38;5.95;;;;;;;4.06;67.88;102654.22;4997617;28;20388;-78
2022/12/04 05:40:59;;;;;;;9.75;5.97;;;;;;;3.99;68.77;102663.31;4993278;28;20520;-77
2022/12/04 05:43:24;;;;;;;10.38;6.25;;;;;;;4.15;67.80;102656.34;4991609;28;20385;-77
2022/12/04 05:45:50;;;;;;;10.13;6.03;;;;;;;3.95;68.21;102659.16;4990164;28;20491;-77
2022/12/04 05:48:15;;;;;;;11.53;7.13;;;;;;;4.11;67.82;102653.97;4990563;28;20400;-77
2022/12/04 05:50:41;;;;;;;11.83;6.53;;;;;;;3.94;68.18;102655.72;4999704;28;20493;-78
2022/12/04 05:53:06;;;;;;;9.60;6.60;;;;;;;3.95;68.18;102653.91;4988561;28;20394;-77
2022/12/04 05:55:32;;;;;;;10.23;6.93;;;;;;;3.86;68.18;102657.88;4986967;28;20524;-78
2022/12/04 05:57:57;;;;;;;11.83;6.27;;;;;;;3.79;68.51;102656.47;4991584;28;20401;-77
2022/12/04 06:00:41;;;;;;;9.97;6.13;;;;;;;4.01;67.85;102667.56;4997532;28;20830;-77
2022/12/04 06:03:07;;;;;;;10.57;6.50;;;;;;;3.89;68.09;102657.72;5000897;28;20392;-77
2022/12/04 06:05:32;;;;;;;11.97;6.90;;;;;;;4.01;68.45;102657.06;5004130;28;20586;-77
2022/12/04 06:07:58;;;;;;;9.17;6.10;;;;;;;4.11;67.42;102662.69;4986220;28;20406;-77
2022/12/04 06:10:23;;;;;;;12.20;6.43;;;;;;;4.12;67.91;102663.53;4987753;28;20845;-77
2022/12/04 06:12:49;;;;;;;11.53;7.07;;;;;;;4.00;67.56;102657.16;4989128;28;20753;-77
2022/12/04 06:15:14;;;;;;;10.03;6.63;;;;;;;3.98;68.31;102646.75;4991870;28;20810;-77
2022/12/04 06:17:39;;;;;;;11.90;6.93;;;;;;;3.97;68.18;102655.53;5004176;28;20420;-77
2022/12/04 06:20:05;;;;;;;11.10;6.95;;;;;;;4.30;67.44;102659.09;4984019;28;20391;-77
2022/12/04 06:22:31;;;;;;;10.57;6.65;;;;;;;4.42;66.56;102662.88;5000795;28;20392;-78
2022/12/04 06:24:56;;;;;;;12.68;7.30;;;;;;;4.26;66.98;102668.06;4993844;28;20385;-77
2022/12/04 06:27:22;;;;;;;11.00;6.80;;;;;;;4.18;67.71;102669.31;5004465;28;20396;-77
2022/12/04 06:29:47;;;;;;;10.77;7.13;;;;;;;4.31;67.09;102661.66;4983266;28;20483;-77
2022/12/04 06:32:13;;;;;;;12.13;6.90;;;;;;;4.13;67.58;102668.72;4980591;28;20437;-77
2022/12/04 06:34:38;;;;;;;9.43;6.10;;;;;;;4.19;67.64;102678.88;4989623;28;20406;-77
2022/12/04 06:37:04;;;;;;;11.60;6.80;;;;;;;4.08;67.68;102678.59;5000304;28;20432;-77
2022/12/04 06:39:29;;;;;;;10.47;6.00;;;;;;;4.14;67.44;102677.41;4991113;28;20482;-76
2022/12/04 06:41:55;;;;;;;10.77;5.97;;;;;;;3.87;68.08;102677.06;4977532;28;20399;-77
2022/12/04 06:44:20;;;;;;;10.60;5.93;;;;;;;3.98;68.39;102680.84;4981883;28;20387;-77
2022/12/04 06:46:47;;;;;;;11.23;8.10;;;;;;;3.86;68.51;102678.00;4994452;28;20466;-77
2022/12/04 06:49:13;;;;;;;11.18;6.57;;;;;;;3.91;68.34;102676.84;4983335;28;20412;-77
2022/12/04 06:51:39;;;;;;;9.57;5.93;;;;;;;3.90;67.79;102675.13;5002032;28;20758;-77
2022/12/04 06:54:05;;;;;;;9.80;6.33;;;;;;;3.82;68.09;102678.16;4995365;28;20429;-77
2022/12/04 06:56:32;;;;;;;9.50;6.10;;;;;;;4.03;67.76;102683.22;4982296;28;20438;-77
2022/12/04 06:59:00;;;;;;;10.55;6.20;;;;;;;4.12;67.79;102690.63;4982328;28;20515;-77
2022/12/04 07:01:28;;;;;;;9.40;5.83;;;;;;;4.21;67.04;102684.91;4993503;28;20389;-77
2022/12/04 07:03:55;;;;;;;9.23;5.90;;;;;;;4.07;67.21;102678.66;4995617;28;20390;-79
2022/12/04 07:06:26;;;;;;;9.65;6.30;;;;;;;4.03;67.73;102691.09;4983010;28;20429;-77
2022/12/04 07:08:59;;;;;;;9.20;6.03;;;;;;;4.02;67.39;102685.00;4997263;28;20480;-77
2022/12/04 07:11:25;;;;;;;10.40;6.32;;;;;;;4.10;67.76;102675.91;4998702;28;20394;-78
2022/12/04 07:13:51;;;;;;;9.10;6.43;;;;;;;3.93;68.09;102671.53;4993323;28;20420;-78
2022/12/04 07:16:19;;;;;;;10.10;6.20;;;;;;;4.02;68.14;102682.38;4995953;28;20488;-78
2022/12/04 07:18:45;;;;;;;9.02;5.43;;;;;;;4.18;66.93;102686.84;5002370;28;20380;-77
2022/12/04 07:21:15;;;;;;;7.85;5.20;;;;;;;3.95;67.26;102695.91;5001105;28;20447;-77
2022/12/04 07:23:41;;;;;;;8.52;5.97;;;;;;;4.09;67.18;102688.19;4984389;28;20856;-77
2022/12/04 07:26:09;;;;;;;8.65;5.50;;;;;;;4.24;67.09;102702.28;4993690;28;20393;-77
2022/12/04 07:28:35;;;;;;;8.07;5.50;;;;;;;4.13;67.19;102705.44;4995994;28;20395;-77
2022/12/04 07:31:09;;;;;;;9.85;5.80;;;;;;;3.98;67.56;102714.09;4996065;28;20480;-77
2022/12/04 07:33:36;;;;;;;10.48;5.70;;;;;;;4.03;67.69;102701.59;4996042;28;20413;-78
2022/12/04 07:36:04;;;;;;;7.85;5.50;;;;;;;4.01;67.40;102708.69;4998067;28;20432;-77
2022/12/04 07:38:31;;;;;;;8.30;5.25;;;;;;;3.96;67.63;102708.06;4985747;28;20448;-77
2022/12/04 07:41:02;;;;;;;10.82;6.45;;;;;;;4.17;67.59;102703.53;4996928;28;20468;-77
2022/12/04 07:43:28;;;;;;;16.23;11.77;;;;;;;4.37;66.63;102699.84;5008518;28;20390;-78
2022/12/04 07:45:53;;;;;;;8.07;5.38;;;;;;;4.06;67.11;102714.56;4999373;28;20411;-76
2022/12/04 07:48:19;;;;;;;8.17;5.27;;;;;;;3.82;68.25;102706.16;5001740;28;20390;-77
2022/12/04 07:50:45;;;;;;;8.10;5.68;;;;;;;4.11;68.00;102706.47;5005633;28;20388;-78
2022/12/04 07:53:10;;;;;;;9.52;5.57;;;;;;;4.09;67.08;102703.91;5003909;28;20418;-78
2022/12/04 07:55:36;;;;;;;8.17;5.33;;;;;;;4.12;67.81;102709.00;5003091;28;20925;-77
2022/12/04 07:58:01;;;;;;;9.73;5.70;;;;;;;4.13;67.42;102723.81;4992477;28;20542;-77
2022/12/04 08:00:27;;;;;;;9.30;6.30;;;;;;;4.07;67.94;102718.91;4989993;28;20386;-77
2022/12/04 08:02:52;;;;;;;10.57;6.93;;;;;;;4.26;67.58;102721.41;5000113;28;20392;-77
2022/12/04 08:05:18;;;;;;;10.30;6.67;;;;;;;4.38;66.65;102709.44;4992501;28;20896;-77
2022/12/04 08:07:43;;;;;;;10.38;6.30;;;;;;;4.22;67.32;102723.34;4992166;28;20548;-76
2022/12/04 08:10:09;;;;;;;10.55;6.10;;;;;;;4.33;67.06;102721.97;4996754;28;20857;-77
2022/12/04 08:12:35;;;;;;;15.80;13.63;;;;;;;4.31;67.15;102724.66;4990926;28;20389;-77
2022/12/04 08:15:01;;;;;;;8.85;6.05;;;;;;;4.36;67.34;102713.94;5001473;28;20530;-77
2022/12/04 08:17:26;;;;;;;10.20;6.78;;;;;;;4.34;67.08;102708.75;5000130;28;20405;-76
2022/12/04 08:19:52;;;;;;;8.77;5.53;;;;;;;4.26;67.58;102712.69;4998061;28;20390;-76
2022/12/04 08:22:17;;;;;;;9.80;7.18;;;;;;;4.59;66.76;102710.06;4993483;28;20380;-77
2022/12/04 08:24:43;;;;;;;8.03;5.20;;;;;;;4.53;66.57;102713.03;5006338;28;20391;-77
2022/12/04 08:27:08;;;;;;;6.83;4.87;;;;;;;4.42;67.14;102710.97;4999516;28;20395;-76
2022/12/04 08:29:34;;;;;;;9.77;5.50;;;;;;;4.21;67.54;102703.28;5005771;28;20431;-76
2022/12/04 08:31:59;;;;;;;8.02;5.10;;;;;;;4.32;67.47;102700.13;5003552;28;20825;-77
2022/12/04 08:34:25;;;;;;;8.65;5.40;;;;;;;4.23;67.21;102705.81;5004679;28;20745;-77
2022/12/04 08:36:51;;;;;;;9.55;6.18;;;;;;;4.25;67.59;102703.13;4998168;28;20412;-76
2022/12/04 08:39:16;;;;;;;8.93;6.55;;;;;;;4.14;67.67;102696.66;5004536;28;20413;-76
2022/12/04 08:41:42;;;;;;;14.10;7.77;;;;;;;4.10;68.08;102704.75;5009258;28;20812;-76
2022/12/04 08:44:08;;;;;;;11.23;7.00;;;;;;;4.30;67.40;102701.09;5007779;28;20376;-77
2022/12/04 08:46:34;;;;;;;9.52;6.10;;;;;;;4.19;67.72;102691.16;5009486;28;20421;-78
2022/12/04 08:48:59;;;;;;;11.43;6.93;;;;;;;4.46;67.63;102680.16;4995131;28;20401;-77
2022/12/04 08:51:28;;;;;;;10.00;5.93;;;;;;;4.26;67.40;102691.69;4991585;28;20790;-77
2022/12/04 08:53:55;;;;;;;13.75;6.90;;;;;;;4.35;67.39;102697.31;4991865;28;20398;-77
2022/12/04 08:56:24;;;;;;;8.68;6.22;;;;;;;4.42;67.43;102689.97;4986993;28;20419;-77
2022/12/04 08:58:49;;;;;;;11.43;6.05;;;;;;;4.54;66.85;102691.94;4991438;28;20959;-77
2022/12/04 09:01:15;;;;;;;9.10;5.80;;;;;;;4.45;67.52;102697.69;4989969;28;20566;-77
2022/12/04 09:03:41;;;;;;;8.48;5.70;;;;;;;4.35;67.52;102691.22;4992386;28;20386;-77
2022/12/04 09:06:09;;;;;;;10.32;5.50;;;;;;;4.29;67.68;102681.88;4995805;28;20778;-77
2022/12/04 09:08:35;;;;;;;9.40;6.25;;;;;;;4.26;68.09;102679.41;4989572;28;20393;-77
2022/12/04 09:11:06;;;;;;;10.25;6.57;;;;;;;4.34;67.51;102679.00;4991766;28;20398;-77
2022/12/04 09:13:32;;;;;;;9.82;6.75;;;;;;;4.33;67.46;102688.66;4981518;28;20394;-77
2022/12/04 09:15:57;;;;;;;11.90;7.80;;;;;;;4.41;67.55;102677.75;4989620;28;20476;-77
2022/12/04 09:18:23;;;;;;;11.45;6.68;;;;;;;4.30;67.43;102677.47;5006668;28;20394;-77
2022/12/04 09:21:00;;;;;;;9.93;6.45;;;;;;;4.34;67.63;102672.00;4997270;28;20398;-77
2022/12/04 09:23:26;;;;;;;10.85;7.40;;;;;;;4.38;67.40;102668.28;4990330;28;20403;-77
2022/12/04 09:25:52;;;;;;;10.80;7.10;;;;;;;4.35;67.89;102667.59;4999186;28;20445;-79
2022/12/04 09:28:18;;;;;;;12.95;7.72;;;;;;;4.49;67.47;102672.13;5001770;28;20428;-79
2022/12/04 09:30:43;;;;;;;8.50;5.97;;;;;;;4.46;67.50;102659.13;4999155;28;20896;-77
2022/12/04 09:33:09;;;;;;;12.00;7.38;;;;;;;4.36;67.97;102654.38;5000765;28;20872;-77
2022/12/04 09:35:34;;;;;;;11.40;7.53;;;;;;;4.14;68.15;102653.78;5003713;28;20957;-77
2022/12/04 09:38:00;;;;;;;10.70;7.50;;;;;;;4.31;68.11;102655.56;5004461;28;20388;-77
2022/12/04 09:40:39;;;;;;;11.23;7.60;;;;;;;4.34;68.33;102651.00;5000818;28;20753;-78
2022/12/04 09:43:23;;;;;;;11.63;7.90;;;;;;;4.36;67.89;102661.41;5005034;28;20396;-77
2022/12/04 09:45:54;;;;;;;12.30;8.20;;;;;;;4.59;67.70;102654.91;4981501;28;20445;-78
2022/12/04 09:48:21;;;;;;;12.07;7.55;;;;;;;4.45;67.63;102650.41;4994317;28;20405;-77
2022/12/04 09:50:48;;;;;;;11.57;7.50;;;;;;;4.50;67.79;102645.78;4996885;28;20391;-77
2022/12/04 09:53:20;;;;;;;13.18;8.65;;;;;;;4.65;67.61;102641.47;5004138;28;20844;-78
2022/12/04 09:56:04;;;;;;;9.77;6.88;;;;;;;4.61;66.71;102632.06;4987937;28;20404;-78
2022/12/04 09:58:52;;;;;;;9.23;6.75;;;;;;;4.24;68.27;102631.41;4984127;28;20393;-77
2022/12/04 10:01:26;;;;;;;9.77;6.85;;;;;;;4.30;67.62;102627.59;4989340;28;20389;-76
2022/12/04 10:03:53;;;;;;;11.57;7.65;;;;;;;4.31;68.26;102627.50;4986666;28;20394;-77
2022/12/04 10:06:23;;;;;;;12.43;8.63;;;;;;;4.39;67.63;102620.09;4985571;28;20420;-78
2022/12/04 10:09:08;;;;;;;12.35;9.25;;;;;;;4.56;67.67;102629.66;4995692;28;20438;-78
2022/12/04 10:11:49;;;;;;;12.32;8.30;;;;;;;4.57;67.29;102622.63;4991860;28;20401;-77
2022/12/04 10:14:32;;;;;;;11.57;8.25;;;;;;;4.64;66.95;102612.66;4988597;28;20448;-76
2022/12/04 10:17:21;;;;;;;12.93;9.00;;;;;;;4.66;67.21;102610.78;5005667;28;20417;-77
2022/12/04 10:19:58;;;;;;;15.95;9.32;;;;;;;4.56;67.31;102602.56;5002985;28;20383;-79
2022/12/04 10:23:03;;;;;;;10.68;8.02;;;;;;;4.14;68.47;102601.31;4990397;28;20418;-77
2022/12/04 10:25:33;;;;;;;12.43;8.77;;;;;;;4.36;68.33;102595.78;4991584;28;20380;-78
2022/12/04 10:28:48;;;;;;;12.10;8.38;;;;;;;4.32;68.34;102602.09;4994395;28;20751;-78
2022/12/04 10:31:14;;;;;;;9.77;7.45;;;;;;;4.26;67.99;102599.81;4945437;29;20389;-78
2022/12/04 10:33:53;;;;;;;10.05;7.25;;;;;;;4.15;68.34;102597.75;4942150;29;20526;-78
2022/12/04 10:36:22;;;;;;;10.65;7.43;;;;;;;4.28;67.68;102585.66;4977205;28;20405;-78
2022/12/04 10:38:58;;;;;;;9.68;7.72;;;;;;;4.53;67.57;102590.44;4995548;28;20377;-78
2022/12/04 10:41:47;;;;;;;10.70;7.40;;;;;;;4.27;67.85;102576.13;4987837;28;20390;-77
2022/12/04 10:44:18;;;;;;;12.15;8.70;;;;;;;4.33;67.74;102581.03;4985861;28;20472;-77
2022/12/04 10:46:44;;;;;;;9.90;7.80;;;;;;;4.43;67.45;102577.88;4989466;28;20475;-77
2022/12/04 10:49:23;;;;;;;11.87;8.80;;;;;;;4.70;66.57;102573.75;4989490;28;20389;-77
2022/12/04 10:51:49;;;;;;;12.90;9.13;;;;;;;4.64;67.13;102589.00;4994426;28;20421;-76
2022/12/04 10:54:20;;;;;;;13.75;9.02;;;;;;;4.75;66.77;102582.22;4988143;28;20406;-77
2022/12/04 10:57:06;;;;;;;11.65;8.60;;;;;;;4.74;66.95;102574.44;4988738;28;20394;-76
2022/12/04 10:59:33;;;;;;;11.90;9.15;;;;;;;4.54;66.52;102572.91;4989522;28;20394;-78
2022/12/04 11:02:11;;;;;;;13.77;9.43;;;;;;;4.53;67.17;102565.97;4981752;28;20408;-76
2022/12/04 11:04:36;;;;;;;11.95;8.65;;;;;;;4.72;67.13;102558.75;4982375;28;20733;-76
2022/12/04 11:07:17;;;;;;;12.82;8.50;;;;;;;4.67;66.74;102562.56;4983484;28;20868;-76
2022/12/04 11:09:43;;;;;;;11.27;8.07;;;;;;;4.65;66.68;102574.94;4986655;28;20436;-78
2022/12/04 11:12:17;;;;;;;13.30;8.38;;;;;;;4.74;66.77;102579.69;4995685;28;20390;-77
2022/12/04 11:14:42;;;;;;;10.95;7.63;;;;;;;4.65;67.08;102564.44;5007766;28;20439;-77
2022/12/04 11:17:15;;;;;;;11.30;7.73;;;;;;;4.81;66.46;102552.13;5002003;28;20440;-77
2022/12/04 11:19:41;;;;;;;10.98;8.20;;;;;;;4.78;66.25;102566.28;5000719;28;20456;-78
2022/12/04 11:22:16;;;;;;;11.57;7.97;;;;;;;4.86;66.27;102565.88;4997655;28;20393;-77
2022/12/04 11:24:50;;;;;;;10.70;7.88;;;;;;;4.76;66.34;102557.63;4993570;28;20458;-77
2022/12/04 11:27:24;;;;;;;11.43;8.32;;;;;;;4.88;66.19;102555.25;4996079;28;20372;-77
2022/12/04 11:29:50;;;;;;;13.82;9.13;;;;;;;4.97;66.34;102558.22;4996876;28;20393;-77
2022/12/04 11:32:21;;;;;;;11.52;8.45;;;;;;;5.06;65.42;102558.59;4997245;28;20425;-76
2022/12/04 11:34:50;;;;;;;9.85;7.30;;;;;;;4.90;66.02;102563.91;4993562;28;20487;-76
2022/12/04 11:37:24;;;;;;;13.47;8.80;;;;;;;4.79;66.52;102557.47;4996077;28;20503;-76
2022/12/04 11:39:51;;;;;;;12.68;7.88;;;;;;;4.66;66.78;102550.34;4992346;28;20397;-76
2022/12/04 11:42:22;;;;;;;10.77;8.80;;;;;;;4.75;66.42;102541.94;4985626;28;20424;-77
2022/12/04 11:44:52;;;;;;;11.10;8.40;;;;;;;4.86;66.53;102546.59;4999276;28;20382;-77
2022/12/04 11:47:20;;;;;;;10.57;7.93;;;;;;;5.03;66.34;102545.66;5002538;28;20522;-76
2022/12/04 11:50:16;;;;;;;12.02;8.32;;;;;;;5.13;66.31;102552.91;4993227;28;20390;-76
2022/12/04 11:52:58;;;;;;;11.98;7.95;;;;;;;5.13;66.21;102550.28;4990811;28;20498;-76